createdAt,value
2023-04-05T00:00:27.642Z,8.30
2023-04-05T00:02:58.006Z,8.48
2023-04-05T00:05:31.569Z,7.75
2023-04-05T00:08:00.580Z,7.85
2023-04-05T00:10:28.448Z,7.78
2023-04-05T00:12:55.615Z,7.55
2023-04-05T00:15:22.568Z,8.27
2023-04-05T00:17:49.590Z,8.07
2023-04-05T00:20:16.615Z,8.55
2023-04-05T00:22:44.653Z,8.63
2023-04-05T00:25:11.396Z,8.55
2023-04-05T00:27:39.355Z,9.50
2023-04-05T00:30:06.744Z,7.20
2023-04-05T00:32:33.784Z,8.98
2023-04-05T00:35:00.851Z,9.05
2023-04-05T00:37:27.931Z,8.75
2023-04-05T00:39:57.355Z,9.02
2023-04-05T00:42:24.402Z,9.18
2023-04-05T00:44:51.052Z,8.30
2023-04-05T00:47:18.202Z,8.73
2023-04-05T00:49:45.234Z,8.65
2023-04-05T00:52:13.067Z,9.40
2023-04-05T00:54:41.426Z,9.63
2023-04-05T00:57:08.982Z,9.25
2023-04-05T00:59:35.695Z,9.02
2023-04-05T01:02:27.119Z,9.38
2023-04-05T01:05:00.953Z,9.43
2023-04-05T01:07:58.641Z,8.43
2023-04-05T01:10:31.189Z,9.48
2023-04-05T01:12:58.927Z,9.18
2023-04-05T01:15:25.909Z,8.98
2023-04-05T01:20:25.898Z,8.35
2023-04-05T01:23:37.939Z,8.38
2023-04-05T01:26:10.005Z,8.90
2023-04-05T01:29:15.241Z,7.93
2023-04-05T01:32:05.151Z,7.82
2023-04-05T01:37:15.807Z,8.15
2023-04-05T01:39:43.539Z,8.68
2023-04-05T01:42:10.656Z,8.63
2023-04-05T01:44:38.418Z,7.90
2023-04-05T01:47:05.706Z,8.60
2023-04-05T01:49:32.477Z,8.45
2023-04-05T01:51:59.514Z,9.32
2023-04-05T01:54:26.599Z,7.97
2023-04-05T01:56:53.630Z,8.05
2023-04-05T01:59:20.925Z,7.68
2023-04-05T02:01:47.738Z,7.57
2023-04-05T02:04:14.757Z,7.78
2023-04-05T02:06:42.424Z,7.70
2023-04-05T02:09:09.366Z,9.25
2023-04-05T02:11:36.335Z,8.30
2023-04-05T02:14:04.064Z,7.80
2023-04-05T02:16:33.383Z,8.07
2023-04-05T02:19:00.689Z,7.95
2023-04-05T02:21:27.419Z,8.38
2023-04-05T02:23:54.598Z,8.75
2023-04-05T02:26:21.539Z,9.43
2023-04-05T02:28:48.554Z,8.85
2023-04-05T02:31:15.668Z,8.02
2023-04-05T02:33:42.922Z,9.73
2023-04-05T02:36:12.304Z,8.25
2023-04-05T02:38:40.033Z,8.38
2023-04-05T02:41:11.754Z,9.18
2023-04-05T02:43:39.380Z,8.30
2023-04-05T02:46:06.225Z,8.95
2023-04-05T02:48:33.095Z,9.25
2023-04-05T02:51:00.179Z,8.38
2023-04-05T02:53:27.196Z,9.32
2023-04-05T02:55:58.075Z,9.07
2023-04-05T02:58:25.065Z,8.77
2023-04-05T03:00:54.217Z,9.18
2023-04-05T03:03:22.593Z,8.93
2023-04-05T03:05:56.983Z,9.32
2023-04-05T03:08:23.917Z,9.27
2023-04-05T03:10:54.369Z,9.00
2023-04-05T03:13:21.195Z,10.25
2023-04-05T03:15:48.254Z,9.45
2023-04-05T03:18:16.543Z,8.13
2023-04-05T03:20:45.822Z,8.57
2023-04-05T03:23:12.670Z,9.32
2023-04-05T03:25:41.606Z,10.20
2023-04-05T03:28:08.808Z,7.78
2023-04-05T03:30:35.937Z,9.27
2023-04-05T03:33:03.907Z,9.80
2023-04-05T03:35:31.015Z,9.65
2023-04-05T03:37:57.805Z,10.50
2023-04-05T03:40:24.880Z,9.70
2023-04-05T03:42:51.929Z,10.30
2023-04-05T03:45:23.806Z,10.95
2023-04-05T03:47:51.080Z,9.38
2023-04-05T03:50:18.002Z,10.52
2023-04-05T03:52:45.144Z,10.18
2023-04-05T03:55:13.573Z,9.05
2023-04-05T03:57:41.943Z,8.98
2023-04-05T04:00:14.244Z,9.98
2023-04-05T04:02:45.574Z,10.73
2023-04-05T04:05:13.729Z,10.25
2023-04-05T04:07:41.916Z,10.32
2023-04-05T04:10:10.467Z,10.57
2023-04-05T04:12:39.261Z,10.07
2023-04-05T04:15:06.643Z,11.13
2023-04-05T04:17:36.079Z,10.05
2023-04-05T04:20:09.139Z,10.40
2023-04-05T04:22:38.804Z,10.25
2023-04-05T04:25:10.583Z,10.55
2023-04-05T04:27:40.280Z,9.82
2023-04-05T04:30:10.329Z,11.13
2023-04-05T04:32:54.953Z,13.40
2023-04-05T04:35:30.322Z,10.68
2023-04-05T04:38:05.001Z,11.05
2023-04-05T04:40:40.150Z,11.75
2023-04-05T04:43:17.285Z,11.20
2023-04-05T04:45:50.122Z,11.65
2023-04-05T04:48:17.615Z,10.70
2023-04-05T04:50:45.853Z,10.55
2023-04-05T04:53:18.054Z,11.20
2023-04-05T04:55:45.261Z,10.63
2023-04-05T04:58:13.483Z,11.90
2023-04-05T05:00:44.538Z,10.85
2023-04-05T05:03:11.888Z,10.77
2023-04-05T05:05:49.176Z,10.77
2023-04-05T05:08:19.700Z,11.02
2023-04-05T05:10:52.794Z,11.10
2023-04-05T05:13:19.731Z,14.52
2023-04-05T05:15:46.836Z,11.52
2023-04-05T05:18:13.965Z,10.57
2023-04-05T05:20:41.622Z,10.77
2023-04-05T05:23:08.645Z,12.38
2023-04-05T05:25:36.689Z,11.77
2023-04-05T05:28:05.069Z,12.77
2023-04-05T05:30:31.885Z,11.13
2023-04-05T05:32:58.959Z,11.82
2023-04-05T05:35:26.089Z,12.90
2023-04-05T05:37:52.915Z,12.60
2023-04-05T05:40:20.128Z,13.88
2023-04-05T05:42:47.249Z,12.40
2023-04-05T05:45:14.089Z,12.50
2023-04-05T05:47:42.157Z,10.68
2023-04-05T05:50:10.024Z,12.55
2023-04-05T05:52:37.014Z,11.77
2023-04-05T05:55:04.297Z,11.10
2023-04-05T05:57:31.040Z,11.02
2023-04-05T05:59:57.696Z,12.85
2023-04-05T06:02:24.391Z,12.02
2023-04-05T06:04:51.541Z,12.10
2023-04-05T06:07:18.579Z,11.05
2023-04-05T06:09:45.694Z,13.90
2023-04-05T06:12:12.563Z,11.82
2023-04-05T06:14:39.606Z,11.75
2023-04-05T06:17:07.473Z,11.48
2023-04-05T06:19:35.410Z,10.38
2023-04-05T06:22:02.473Z,12.63
2023-04-05T06:24:32.552Z,12.40
2023-04-05T06:26:59.391Z,12.90
2023-04-05T06:29:26.135Z,11.27
2023-04-05T06:31:53.262Z,12.80
2023-04-05T06:34:20.177Z,12.73
2023-04-05T06:36:47.475Z,11.57
2023-04-05T06:39:14.738Z,16.13
2023-04-05T06:41:41.585Z,12.52
2023-04-05T06:44:08.302Z,11.15
2023-04-05T06:46:35.438Z,10.55
2023-04-05T06:49:03.795Z,9.73
2023-04-05T06:51:31.680Z,11.00
2023-04-05T06:53:58.804Z,10.20
2023-04-05T06:56:25.595Z,10.48
2023-04-05T06:58:53.044Z,10.23
2023-04-05T07:01:19.892Z,10.75
2023-04-05T07:03:46.719Z,10.00
2023-04-05T07:06:14.310Z,10.15
2023-04-05T07:08:41.253Z,10.65
2023-04-05T07:11:08.427Z,9.77
2023-04-05T07:13:35.494Z,12.10
2023-04-05T07:16:03.413Z,11.50
2023-04-05T07:18:30.732Z,10.20
2023-04-05T07:21:03.629Z,9.88
2023-04-05T07:23:31.119Z,11.05
2023-04-05T07:26:06.013Z,10.93
2023-04-05T07:28:35.408Z,9.30
2023-04-05T07:31:03.495Z,10.43
2023-04-05T07:33:30.840Z,10.05
2023-04-05T07:35:57.954Z,10.52
2023-04-05T07:38:26.041Z,12.48
2023-04-05T07:40:52.931Z,10.30
2023-04-05T07:43:20.112Z,10.70
2023-04-05T07:45:47.098Z,10.65
2023-04-05T07:48:14.198Z,11.68
2023-04-05T07:50:42.445Z,10.73
2023-04-05T07:53:09.423Z,10.13
2023-04-05T07:55:38.789Z,10.20
2023-04-05T07:58:05.528Z,9.90
2023-04-05T08:00:32.256Z,10.25
2023-04-05T08:03:01.994Z,8.73
2023-04-05T08:05:29.624Z,9.07
2023-04-05T08:07:58.316Z,8.63
2023-04-05T08:10:26.123Z,8.80
2023-04-05T08:12:53.760Z,9.95
2023-04-05T08:15:21.003Z,9.05
2023-04-05T08:17:48.229Z,9.88
2023-04-05T08:20:16.434Z,9.32
2023-04-05T08:22:43.283Z,9.23
2023-04-05T08:25:10.482Z,9.20
2023-04-05T08:27:37.489Z,9.02
2023-04-05T08:30:04.801Z,7.90
2023-04-05T08:32:32.913Z,9.13
2023-04-05T08:35:00.863Z,8.63
2023-04-05T08:37:27.955Z,8.18
2023-04-05T08:39:54.876Z,7.90
2023-04-05T08:42:32.492Z,6.72
2023-04-05T08:45:03.297Z,8.23
2023-04-05T08:47:30.967Z,6.40
2023-04-05T08:49:57.892Z,7.28
2023-04-05T08:52:25.903Z,7.13
2023-04-05T08:54:55.300Z,7.47
2023-04-05T08:59:53.188Z,7.35
2023-04-05T09:02:23.161Z,7.93
2023-04-05T09:04:51.308Z,6.95
2023-04-05T09:07:19.811Z,6.57
2023-04-05T09:09:49.673Z,6.55
2023-04-05T09:12:19.040Z,5.72
2023-04-05T09:14:48.424Z,6.30
2023-04-05T09:17:18.504Z,5.50
2023-04-05T09:19:46.336Z,5.65
2023-04-05T09:22:13.992Z,6.45
2023-04-05T09:24:44.827Z,7.22
2023-04-05T09:27:13.529Z,6.82
2023-04-05T09:29:42.421Z,6.93
2023-04-05T09:32:11.724Z,6.55
2023-04-05T09:34:40.449Z,6.80
2023-04-05T09:37:18.277Z,13.30
2023-04-05T09:39:46.072Z,6.63
2023-04-05T09:42:17.276Z,9.50
2023-04-05T09:45:05.619Z,6.72
2023-04-05T09:47:34.955Z,8.48
2023-04-05T09:52:33.925Z,9.50
2023-04-05T09:55:02.895Z,6.65
2023-04-05T09:57:34.720Z,6.93
2023-04-05T10:00:01.457Z,7.07
2023-04-05T10:02:39.895Z,7.07
2023-04-05T10:05:15.689Z,7.40
2023-04-05T10:07:43.641Z,8.00
2023-04-05T10:10:12.443Z,7.55
2023-04-05T10:12:41.574Z,6.63
2023-04-05T10:15:09.172Z,6.32
2023-04-05T10:18:00.809Z,6.75
2023-04-05T10:20:28.622Z,6.85
2023-04-05T10:23:12.684Z,6.78
2023-04-05T10:25:53.176Z,8.00
2023-04-05T10:28:31.533Z,6.40
2023-04-05T10:31:34.232Z,9.82
2023-04-05T10:34:11.298Z,6.95
2023-04-05T10:37:00.601Z,7.00
2023-04-05T10:39:29.860Z,7.53
2023-04-05T10:42:01.323Z,6.10
2023-04-05T10:44:33.136Z,7.65
2023-04-05T10:47:02.424Z,6.45
2023-04-05T10:49:46.428Z,7.18
2023-04-05T10:52:14.087Z,6.82
2023-04-05T10:54:41.586Z,7.20
2023-04-05T10:57:10.386Z,7.28
2023-04-05T10:59:45.909Z,7.72
2023-04-05T11:02:14.561Z,7.32
2023-04-05T11:04:42.333Z,7.32
2023-04-05T11:07:18.945Z,6.88
2023-04-05T11:10:01.163Z,7.35
2023-04-05T11:12:57.282Z,7.85
2023-04-05T11:15:32.999Z,7.68
2023-04-05T11:18:07.936Z,7.47
2023-04-05T11:20:45.069Z,6.97
2023-04-05T11:23:17.045Z,7.40
2023-04-05T11:25:52.236Z,7.72
2023-04-05T11:28:45.510Z,7.65
2023-04-05T11:31:18.427Z,7.05
2023-04-05T11:33:52.028Z,7.38
2023-04-05T11:36:45.781Z,7.05
2023-04-05T11:39:18.994Z,6.95
2023-04-05T11:42:01.338Z,6.75
2023-04-05T11:44:31.618Z,7.43
2023-04-05T11:46:59.682Z,7.78
2023-04-05T11:49:26.706Z,7.63
2023-04-05T11:51:54.229Z,7.18
2023-04-05T11:54:31.469Z,8.18
2023-04-05T11:56:58.824Z,6.63
2023-04-05T11:59:30.571Z,8.10
2023-04-05T12:02:07.473Z,8.75
2023-04-05T12:04:36.143Z,7.63
2023-04-05T12:07:19.913Z,8.50
2023-04-05T12:10:15.986Z,8.02
2023-04-05T12:12:44.986Z,7.78
2023-04-05T12:15:14.591Z,7.82
2023-04-05T12:17:50.271Z,7.50
2023-04-05T12:20:20.571Z,8.45
2023-04-05T12:22:49.240Z,6.93
2023-04-05T12:25:17.660Z,8.83
2023-04-05T12:27:45.734Z,8.30
2023-04-05T12:30:14.650Z,8.02
2023-04-05T12:32:51.038Z,7.85
2023-04-05T12:35:24.480Z,8.75
2023-04-05T12:37:52.226Z,7.80
2023-04-05T12:40:24.834Z,8.15
2023-04-05T12:42:52.263Z,9.73
2023-04-05T12:45:23.207Z,7.70
2023-04-05T12:48:00.298Z,8.98
2023-04-05T12:50:29.613Z,8.05
2023-04-05T12:53:01.073Z,8.55
2023-04-05T12:55:29.513Z,7.97
2023-04-05T12:58:01.235Z,7.95
2023-04-05T13:00:30.955Z,8.38
2023-04-05T13:02:59.357Z,9.13
2023-04-05T13:05:29.121Z,9.18
2023-04-05T13:07:56.570Z,9.05
2023-04-05T13:10:25.100Z,8.52
2023-04-05T13:12:52.216Z,9.95
2023-04-05T13:15:19.580Z,8.63
2023-04-05T13:17:49.842Z,9.68
2023-04-05T13:20:17.902Z,8.60
2023-04-05T13:22:45.929Z,9.15
2023-04-05T13:25:13.487Z,7.82
2023-04-05T13:27:40.969Z,8.63
2023-04-05T13:30:08.186Z,8.80
2023-04-05T13:32:35.593Z,9.07
2023-04-05T13:35:02.447Z,8.90
2023-04-05T13:37:29.499Z,8.55
2023-04-05T13:39:56.638Z,8.57
2023-04-05T13:42:24.382Z,7.95
2023-04-05T13:44:52.360Z,8.32
2023-04-05T13:47:20.015Z,8.25
2023-04-05T13:49:46.881Z,8.25
2023-04-05T13:52:13.884Z,9.02
2023-04-05T13:54:40.846Z,9.32
2023-04-05T13:57:08.473Z,8.68
2023-04-05T13:59:35.359Z,8.13
2023-04-05T14:02:02.816Z,7.63
2023-04-05T14:04:30.319Z,8.00
2023-04-05T14:06:58.020Z,7.95
2023-04-05T14:09:24.896Z,8.13
2023-04-05T14:11:51.951Z,7.57
2023-04-05T14:14:18.908Z,7.65
2023-04-05T14:16:46.561Z,7.20
2023-04-05T14:19:13.478Z,7.70
2023-04-05T14:21:40.930Z,7.00
2023-04-05T14:24:08.344Z,8.07
2023-04-05T14:26:35.433Z,7.50
2023-04-05T14:29:02.638Z,7.07
2023-04-05T14:31:29.828Z,7.32
2023-04-05T14:33:56.952Z,8.20
2023-04-05T14:36:24.034Z,7.15
2023-04-05T14:38:51.112Z,7.85
2023-04-05T14:41:19.262Z,8.35
2023-04-05T14:43:46.403Z,9.30
2023-04-05T14:46:13.446Z,7.53
2023-04-05T14:48:40.502Z,7.40
2023-04-05T14:51:07.571Z,8.65
2023-04-05T14:53:34.643Z,7.55
2023-04-05T14:56:01.603Z,8.52
2023-04-05T14:58:29.338Z,8.32
2023-04-05T15:00:57.053Z,7.68
2023-04-05T15:03:25.233Z,8.10
2023-04-05T15:05:52.244Z,7.97
2023-04-05T15:08:19.136Z,7.65
2023-04-05T15:10:46.388Z,9.15
2023-04-05T15:13:13.653Z,9.40
2023-04-05T15:15:40.922Z,7.82
2023-04-05T15:18:08.145Z,8.15
2023-04-05T15:20:35.674Z,8.77
2023-04-05T15:23:02.955Z,8.75
2023-04-05T15:25:29.914Z,9.00
2023-04-05T15:28:00.163Z,8.25
2023-04-05T15:30:28.563Z,8.77
2023-04-05T15:32:55.657Z,7.85
2023-04-05T15:35:22.870Z,9.70
2023-04-05T15:37:50.705Z,9.35
2023-04-05T15:40:17.861Z,9.57
2023-04-05T15:42:44.736Z,9.35
2023-04-05T15:45:12.027Z,9.32
2023-04-05T15:47:39.738Z,8.48
2023-04-05T15:50:07.154Z,8.52
2023-04-05T15:52:35.300Z,8.50
2023-04-05T15:55:02.607Z,8.18
2023-04-05T15:57:29.546Z,8.63
2023-04-05T15:59:56.336Z,8.60
2023-04-05T16:02:23.304Z,9.50
2023-04-05T16:04:50.517Z,9.73
2023-04-05T16:07:17.330Z,9.48
2023-04-05T16:09:44.287Z,10.05
2023-04-05T16:12:11.446Z,9.05
2023-04-05T16:14:38.530Z,8.73
2023-04-05T16:17:05.858Z,9.32
2023-04-05T16:19:33.410Z,10.80
2023-04-05T16:22:02.991Z,10.50
2023-04-05T16:24:33.056Z,9.90
2023-04-05T16:26:59.763Z,8.63
2023-04-05T16:29:27.184Z,9.00
2023-04-05T16:31:54.306Z,8.88
2023-04-05T16:34:21.863Z,9.60
2023-04-05T16:36:48.940Z,9.75
2023-04-05T16:39:16.007Z,9.98
2023-04-05T16:41:42.945Z,8.90
2023-04-05T16:44:10.372Z,9.73
2023-04-05T16:46:37.599Z,9.55
2023-04-05T16:49:04.860Z,9.63
2023-04-05T16:51:33.723Z,15.73
2023-04-05T16:54:01.992Z,10.13
2023-04-05T16:56:28.944Z,9.85
2023-04-05T16:58:57.357Z,9.75
2023-04-05T17:01:24.215Z,9.32
2023-04-05T17:03:51.242Z,9.30
2023-04-05T17:06:18.366Z,9.02
2023-04-05T17:08:45.349Z,10.50
2023-04-05T17:11:12.428Z,10.80
2023-04-05T17:13:41.385Z,9.52
2023-04-05T17:16:08.174Z,9.70
2023-04-05T17:18:35.158Z,10.82
2023-04-05T17:21:02.323Z,10.00
2023-04-05T17:23:29.306Z,9.60
2023-04-05T17:25:56.371Z,9.13
2023-04-05T17:28:23.058Z,9.23
2023-04-05T17:30:50.061Z,8.65
2023-04-05T17:33:17.917Z,10.90
2023-04-05T17:35:44.934Z,8.45
2023-04-05T17:38:12.064Z,9.70
2023-04-05T17:40:38.740Z,9.07
2023-04-05T17:43:06.146Z,9.95
2023-04-05T17:45:33.214Z,9.52
2023-04-05T17:48:00.542Z,11.93
2023-04-05T17:50:28.488Z,9.02
2023-04-05T17:52:55.629Z,9.18
2023-04-05T17:55:22.590Z,10.00
2023-04-05T17:57:49.615Z,9.57
2023-04-05T18:00:16.767Z,9.77
2023-04-05T18:02:45.691Z,8.40
2023-04-05T18:05:13.098Z,8.95
2023-04-05T18:07:42.242Z,9.93
2023-04-05T18:10:10.692Z,10.88
2023-04-05T18:12:37.814Z,11.48
2023-04-05T18:15:04.951Z,12.20
2023-04-05T18:17:31.928Z,11.80
2023-04-05T18:19:58.800Z,11.38
2023-04-05T18:22:26.385Z,16.00
2023-04-05T18:24:53.276Z,12.13
2023-04-05T18:27:20.629Z,11.30
2023-04-05T18:29:48.490Z,11.15
2023-04-05T18:32:16.071Z,10.98
2023-04-05T18:34:43.956Z,11.23
2023-04-05T18:37:11.551Z,12.38
2023-04-05T18:39:38.510Z,11.25
2023-04-05T18:42:05.636Z,12.15
2023-04-05T18:44:33.903Z,11.70
2023-04-05T18:47:01.182Z,12.02
2023-04-05T18:49:28.321Z,11.70
2023-04-05T18:51:55.879Z,12.52
2023-04-05T18:54:22.895Z,12.85
2023-04-05T18:56:50.016Z,11.90
2023-04-05T18:59:17.391Z,11.43
2023-04-05T19:01:44.490Z,11.98
2023-04-05T19:04:11.475Z,12.07
2023-04-05T19:06:38.431Z,10.73
2023-04-05T19:09:06.208Z,10.85
2023-04-05T19:11:33.362Z,11.85
2023-04-05T19:14:03.569Z,11.52
2023-04-05T19:16:31.062Z,12.82
2023-04-05T19:18:58.182Z,10.55
2023-04-05T19:21:25.995Z,11.10
2023-04-05T19:23:53.150Z,10.52
2023-04-05T19:26:22.432Z,10.82
2023-04-05T19:28:49.730Z,11.13
2023-04-05T19:31:16.769Z,10.43
2023-04-05T19:33:43.837Z,10.43
2023-04-05T19:36:10.981Z,10.00
2023-04-05T19:38:39.824Z,11.10
2023-04-05T19:41:06.740Z,11.57
2023-04-05T19:43:36.506Z,14.27
2023-04-05T19:48:45.922Z,10.73
2023-04-05T19:51:14.938Z,11.68
2023-04-05T19:53:53.911Z,10.57
2023-04-05T19:56:27.178Z,11.87
2023-04-05T19:58:58.723Z,10.85
2023-04-05T20:01:31.129Z,9.95
2023-04-05T20:03:58.730Z,10.23
2023-04-05T20:06:27.169Z,10.32
2023-04-05T20:09:02.547Z,10.38
2023-04-05T20:11:29.276Z,11.25
2023-04-05T20:13:59.021Z,12.60
2023-04-05T20:18:56.380Z,11.45
2023-04-05T20:21:23.337Z,12.95
2023-04-05T20:23:51.116Z,11.27
2023-04-05T20:26:22.804Z,12.15
2023-04-05T20:28:54.083Z,11.43
2023-04-05T20:31:30.877Z,11.25
2023-04-05T20:33:59.128Z,12.40
2023-04-05T20:36:33.022Z,11.90
2023-04-05T20:39:01.454Z,11.43
2023-04-05T20:41:28.858Z,11.18
2023-04-05T20:43:56.469Z,11.05
2023-04-05T20:46:24.098Z,10.60
2023-04-05T20:48:53.326Z,11.57
2023-04-05T20:51:20.272Z,12.05
2023-04-05T20:53:47.142Z,11.50
2023-04-05T20:56:14.343Z,10.05
2023-04-05T20:58:41.543Z,10.07
2023-04-05T21:01:09.301Z,11.00
2023-04-05T21:03:38.381Z,11.23
2023-04-05T21:06:07.928Z,10.90
2023-04-05T21:08:36.343Z,11.40
2023-04-05T21:11:03.876Z,10.68
2023-04-05T21:13:30.997Z,10.93
2023-04-05T21:15:58.721Z,11.70
2023-04-05T21:18:26.180Z,12.95
2023-04-05T21:20:53.650Z,11.15
2023-04-05T21:23:22.669Z,11.05
2023-04-05T21:25:49.987Z,11.48
2023-04-05T21:28:17.792Z,10.93
2023-04-05T21:30:45.190Z,11.13
2023-04-05T21:33:13.000Z,12.05
2023-04-05T21:35:40.581Z,11.65
2023-04-05T21:38:07.613Z,10.90
2023-04-05T21:40:35.005Z,10.77
2023-04-05T21:43:02.158Z,12.27
2023-04-05T21:45:29.138Z,10.40
2023-04-05T21:47:56.471Z,12.32
2023-04-05T21:50:24.427Z,11.25
2023-04-05T21:52:51.485Z,11.88
2023-04-05T21:55:18.629Z,11.05
2023-04-05T21:57:45.719Z,10.77
2023-04-05T22:00:12.868Z,11.48
2023-04-05T22:02:40.293Z,11.63
2023-04-05T22:05:09.345Z,12.30
2023-04-05T22:07:36.592Z,12.07
2023-04-05T22:10:04.556Z,12.30
2023-04-05T22:12:31.595Z,10.98
2023-04-05T22:14:58.686Z,11.18
2023-04-05T22:17:25.680Z,11.70
2023-04-05T22:19:53.524Z,12.35
2023-04-05T22:22:20.819Z,12.52
2023-04-05T22:24:48.888Z,12.10
2023-04-05T22:27:16.345Z,13.15
2023-04-05T22:29:43.105Z,11.80
2023-04-05T22:32:10.166Z,12.25
2023-04-05T22:34:37.038Z,13.30
2023-04-05T22:37:06.298Z,13.27
2023-04-05T22:39:33.184Z,11.63
2023-04-05T22:42:00.266Z,12.98
2023-04-05T22:44:27.337Z,12.45
2023-04-05T22:46:54.342Z,12.40
2023-04-05T22:49:21.494Z,14.43
2023-04-05T22:51:49.230Z,12.40
2023-04-05T22:54:16.370Z,12.45
2023-04-05T22:56:43.341Z,12.80
2023-04-05T22:59:10.744Z,14.00
2023-04-05T23:01:37.922Z,13.98
2023-04-05T23:04:04.867Z,13.65
2023-04-05T23:06:32.148Z,13.30
2023-04-05T23:08:59.070Z,12.90
2023-04-05T23:11:26.298Z,13.48
2023-04-05T23:13:53.125Z,13.27
2023-04-05T23:16:20.250Z,14.75
2023-04-05T23:18:49.087Z,14.23
2023-04-05T23:21:16.437Z,13.63
2023-04-05T23:23:43.312Z,12.70
2023-04-05T23:26:10.487Z,12.82
2023-04-05T23:28:37.418Z,14.02
2023-04-05T23:31:04.532Z,12.73
2023-04-05T23:33:31.488Z,13.35
2023-04-05T23:35:58.591Z,12.52
2023-04-05T23:38:25.590Z,12.73
2023-04-05T23:40:53.509Z,13.18
2023-04-05T23:43:21.333Z,13.45
2023-04-05T23:45:48.462Z,13.70
2023-04-05T23:48:16.456Z,13.40
2023-04-05T23:50:43.296Z,13.43
2023-04-05T23:53:10.346Z,13.80
2023-04-05T23:55:41.599Z,13.95
2023-04-05T23:58:09.064Z,13.77
